sensor_id;sensor_type;location;lat;lon;timestamp;noise_LAeq;noise_LA_min;noise_LA_max;noise_LA01;noise_LA95
64079;Laerm;51042;49.696;10.808;2023-05-29T00:00:20;51.78;38.81;70.42;;
64079;Laerm;51042;49.696;10.808;2023-05-29T00:02:49;51.19;39.09;68.73;;
64079;Laerm;51042;49.696;10.808;2023-05-29T00:05:16;42.07;39.34;44.84;;
64079;Laerm;51042;49.696;10.808;2023-05-29T00:07:41;41.71;38.95;44.39;;
64079;Laerm;51042;49.696;10.808;2023-05-29T00:10:08;41.94;39.71;45.60;;
64079;Laerm;51042;49.696;10.808;2023-05-29T00:12:35;41.85;39.34;44.18;;
64079;Laerm;51042;49.696;10.808;2023-05-29T00:15:01;41.83;39.25;45.15;;
64079;Laerm;51042;49.696;10.808;2023-05-29T00:17:28;41.70;38.98;44.45;;
64079;Laerm;51042;49.696;10.808;2023-05-29T00:19:54;41.39;39.31;43.62;;
64079;Laerm;51042;49.696;10.808;2023-05-29T00:22:19;41.65;39.36;43.94;;
64079;Laerm;51042;49.696;10.808;2023-05-29T00:24:45;41.35;39.05;43.64;;
64079;Laerm;51042;49.696;10.808;2023-05-29T00:27:12;41.69;38.70;48.30;;
64079;Laerm;51042;49.696;10.808;2023-05-29T00:29:37;41.30;38.85;43.51;;
64079;Laerm;51042;49.696;10.808;2023-05-29T00:32:04;41.54;39.36;44.26;;
64079;Laerm;51042;49.696;10.808;2023-05-29T00:34:29;41.87;39.62;44.02;;
64079;Laerm;51042;49.696;10.808;2023-05-29T00:36:55;41.63;39.25;44.03;;
64079;Laerm;51042;49.696;10.808;2023-05-29T00:39:20;41.44;39.22;44.91;;
64079;Laerm;51042;49.696;10.808;2023-05-29T00:41:46;41.73;39.03;45.23;;
64079;Laerm;51042;49.696;10.808;2023-05-29T00:44:15;41.48;39.48;44.50;;
64079;Laerm;51042;49.696;10.808;2023-05-29T00:46:41;42.02;39.40;47.58;;
64079;Laerm;51042;49.696;10.808;2023-05-29T00:49:06;42.03;39.82;44.64;;
64079;Laerm;51042;49.696;10.808;2023-05-29T00:51:31;42.71;40.00;49.23;;
64079;Laerm;51042;49.696;10.808;2023-05-29T00:53:57;42.66;39.60;45.40;;
64079;Laerm;51042;49.696;10.808;2023-05-29T00:56:24;42.93;39.52;45.83;;
64079;Laerm;51042;49.696;10.808;2023-05-29T00:58:50;43.06;39.94;46.19;;
64079;Laerm;51042;49.696;10.808;2023-05-29T01:01:20;42.78;39.81;45.14;;
64079;Laerm;51042;49.696;10.808;2023-05-29T01:03:49;42.86;39.46;46.61;;
64079;Laerm;51042;49.696;10.808;2023-05-29T01:06:15;50.26;40.09;67.81;;
64079;Laerm;51042;49.696;10.808;2023-05-29T01:08:40;42.41;39.59;49.58;;
64079;Laerm;51042;49.696;10.808;2023-05-29T01:11:15;42.57;39.37;46.28;;
64079;Laerm;51042;49.696;10.808;2023-05-29T01:13:44;42.45;39.58;45.31;;
64079;Laerm;51042;49.696;10.808;2023-05-29T01:16:26;42.84;39.43;55.92;;
64079;Laerm;51042;49.696;10.808;2023-05-29T01:22:04;43.12;39.35;55.63;;
64079;Laerm;51042;49.696;10.808;2023-05-29T01:24:56;43.01;39.80;48.33;;
64079;Laerm;51042;49.696;10.808;2023-05-29T01:27:24;43.06;40.18;46.40;;
64079;Laerm;51042;49.696;10.808;2023-05-29T01:29:51;43.42;39.94;47.25;;
64079;Laerm;51042;49.696;10.808;2023-05-29T01:32:17;44.23;39.33;52.62;;
64079;Laerm;51042;49.696;10.808;2023-05-29T01:34:43;54.71;39.16;71.53;;
64079;Laerm;51042;49.696;10.808;2023-05-29T01:37:08;42.48;38.76;51.28;;
64079;Laerm;51042;49.696;10.808;2023-05-29T01:39:35;53.22;39.57;79.04;;
64079;Laerm;51042;49.696;10.808;2023-05-29T01:42:01;42.23;39.21;45.11;;
64079;Laerm;51042;49.696;10.808;2023-05-29T01:44:28;42.14;39.59;44.65;;
64079;Laerm;51042;49.696;10.808;2023-05-29T01:46:57;42.01;39.13;44.68;;
64079;Laerm;51042;49.696;10.808;2023-05-29T01:49:26;42.89;39.47;45.93;;
64079;Laerm;51042;49.696;10.808;2023-05-29T01:51:53;43.47;39.72;46.37;;
64079;Laerm;51042;49.696;10.808;2023-05-29T01:54:18;43.65;39.42;46.28;;
64079;Laerm;51042;49.696;10.808;2023-05-29T01:56:44;43.88;40.03;46.52;;
64079;Laerm;51042;49.696;10.808;2023-05-29T01:59:11;44.05;39.42;47.97;;
64079;Laerm;51042;49.696;10.808;2023-05-29T02:01:41;44.26;40.34;49.09;;
64079;Laerm;51042;49.696;10.808;2023-05-29T02:04:07;44.27;40.47;49.24;;
64079;Laerm;51042;49.696;10.808;2023-05-29T02:06:32;43.90;40.09;51.83;;
64079;Laerm;51042;49.696;10.808;2023-05-29T02:08:58;44.00;39.88;50.88;;
64079;Laerm;51042;49.696;10.808;2023-05-29T02:11:23;44.14;39.54;51.98;;
64079;Laerm;51042;49.696;10.808;2023-05-29T02:13:51;44.39;40.05;50.80;;
64079;Laerm;51042;49.696;10.808;2023-05-29T02:16:16;44.69;40.15;51.10;;
64079;Laerm;51042;49.696;10.808;2023-05-29T02:18:42;44.77;40.07;51.67;;
64079;Laerm;51042;49.696;10.808;2023-05-29T02:21:08;44.73;40.35;50.54;;
64079;Laerm;51042;49.696;10.808;2023-05-29T02:23:33;45.16;40.69;51.44;;
64079;Laerm;51042;49.696;10.808;2023-05-29T02:25:59;45.52;40.40;56.18;;
64079;Laerm;51042;49.696;10.808;2023-05-29T02:28:24;46.81;40.82;56.35;;
64079;Laerm;51042;49.696;10.808;2023-05-29T02:30:50;47.11;41.42;57.75;;
64079;Laerm;51042;49.696;10.808;2023-05-29T02:33:16;47.62;40.91;58.97;;
64079;Laerm;51042;49.696;10.808;2023-05-29T02:35:41;45.78;41.43;56.60;;
64079;Laerm;51042;49.696;10.808;2023-05-29T02:38:06;53.30;40.76;71.80;;
64079;Laerm;51042;49.696;10.808;2023-05-29T02:40:32;50.90;40.55;68.92;;
64079;Laerm;51042;49.696;10.808;2023-05-29T02:42:57;45.14;40.35;51.68;;
64079;Laerm;51042;49.696;10.808;2023-05-29T02:45:22;44.54;40.69;58.38;;
64079;Laerm;51042;49.696;10.808;2023-05-29T02:47:47;51.39;40.09;64.04;;
64079;Laerm;51042;49.696;10.808;2023-05-29T02:50:13;50.74;40.97;64.67;;
64079;Laerm;51042;49.696;10.808;2023-05-29T02:52:39;51.69;41.50;66.40;;
64079;Laerm;51042;49.696;10.808;2023-05-29T02:55:06;48.80;41.81;68.66;;
64079;Laerm;51042;49.696;10.808;2023-05-29T02:57:32;45.61;41.52;52.75;;
64079;Laerm;51042;49.696;10.808;2023-05-29T02:59:58;48.00;43.76;58.34;;
64079;Laerm;51042;49.696;10.808;2023-05-29T03:02:24;49.09;41.85;59.62;;
64079;Laerm;51042;49.696;10.808;2023-05-29T03:04:49;49.43;42.65;59.09;;
64079;Laerm;51042;49.696;10.808;2023-05-29T03:07:18;50.42;42.86;61.79;;
64079;Laerm;51042;49.696;10.808;2023-05-29T03:09:44;49.97;43.60;61.35;;
64079;Laerm;51042;49.696;10.808;2023-05-29T03:12:09;50.93;44.10;63.22;;
64079;Laerm;51042;49.696;10.808;2023-05-29T03:14:34;54.32;42.22;68.61;;
64079;Laerm;51042;49.696;10.808;2023-05-29T03:17:03;52.25;43.03;66.91;;
64079;Laerm;51042;49.696;10.808;2023-05-29T03:19:29;54.10;43.00;70.62;;
64079;Laerm;51042;49.696;10.808;2023-05-29T03:21:54;50.80;42.33;64.54;;
64079;Laerm;51042;49.696;10.808;2023-05-29T03:24:20;48.36;42.24;61.24;;
64079;Laerm;51042;49.696;10.808;2023-05-29T03:26:45;54.53;42.67;68.80;;
64079;Laerm;51042;49.696;10.808;2023-05-29T03:29:11;50.50;41.17;64.29;;
64079;Laerm;51042;49.696;10.808;2023-05-29T03:31:36;54.36;42.10;69.95;;
64079;Laerm;51042;49.696;10.808;2023-05-29T03:34:01;56.02;42.37;73.86;;
64079;Laerm;51042;49.696;10.808;2023-05-29T03:36:27;55.31;43.33;69.69;;
64079;Laerm;51042;49.696;10.808;2023-05-29T03:38:53;51.02;42.09;64.29;;
64079;Laerm;51042;49.696;10.808;2023-05-29T03:41:18;52.66;41.32;66.18;;
64079;Laerm;51042;49.696;10.808;2023-05-29T03:43:44;55.53;42.68;70.38;;
64079;Laerm;51042;49.696;10.808;2023-05-29T03:46:09;52.18;42.51;66.43;;
64079;Laerm;51042;49.696;10.808;2023-05-29T03:48:34;55.45;43.08;69.19;;
64079;Laerm;51042;49.696;10.808;2023-05-29T03:51:00;51.80;42.13;66.00;;
64079;Laerm;51042;49.696;10.808;2023-05-29T03:53:25;54.45;42.20;68.56;;
64079;Laerm;51042;49.696;10.808;2023-05-29T03:55:51;52.98;43.04;65.46;;
64079;Laerm;51042;49.696;10.808;2023-05-29T03:58:16;53.39;42.23;66.03;;
64079;Laerm;51042;49.696;10.808;2023-05-29T04:00:41;50.27;42.66;65.07;;
64079;Laerm;51042;49.696;10.808;2023-05-29T04:03:06;52.63;42.85;65.01;;
64079;Laerm;51042;49.696;10.808;2023-05-29T04:05:32;53.30;42.40;64.83;;
64079;Laerm;51042;49.696;10.808;2023-05-29T04:07:57;49.49;41.73;64.77;;
64079;Laerm;51042;49.696;10.808;2023-05-29T04:10:22;52.00;42.04;63.44;;
64079;Laerm;51042;49.696;10.808;2023-05-29T04:12:49;51.31;41.90;65.42;;
64079;Laerm;51042;49.696;10.808;2023-05-29T04:15:14;52.67;41.97;66.86;;
64079;Laerm;51042;49.696;10.808;2023-05-29T04:17:39;46.54;40.56;58.59;;
64079;Laerm;51042;49.696;10.808;2023-05-29T04:20:05;53.83;40.83;66.83;;
64079;Laerm;51042;49.696;10.808;2023-05-29T04:22:35;55.72;41.87;70.48;;
64079;Laerm;51042;49.696;10.808;2023-05-29T04:25:01;54.23;41.09;70.02;;
64079;Laerm;51042;49.696;10.808;2023-05-29T04:27:28;50.78;41.37;63.63;;
64079;Laerm;51042;49.696;10.808;2023-05-29T04:29:54;49.48;41.05;63.62;;
64079;Laerm;51042;49.696;10.808;2023-05-29T04:32:21;46.33;40.91;63.95;;
64079;Laerm;51042;49.696;10.808;2023-05-29T04:34:46;50.03;41.25;67.27;;
64079;Laerm;51042;49.696;10.808;2023-05-29T04:37:12;52.92;40.92;70.42;;
64079;Laerm;51042;49.696;10.808;2023-05-29T04:39:38;53.56;40.91;68.24;;
64079;Laerm;51042;49.696;10.808;2023-05-29T04:42:04;52.79;40.84;64.72;;
64079;Laerm;51042;49.696;10.808;2023-05-29T04:44:30;49.45;40.53;64.73;;
64079;Laerm;51042;49.696;10.808;2023-05-29T04:46:55;51.61;40.44;65.69;;
64079;Laerm;51042;49.696;10.808;2023-05-29T04:49:23;52.41;41.25;65.51;;
64079;Laerm;51042;49.696;10.808;2023-05-29T04:51:49;55.24;41.16;68.10;;
64079;Laerm;51042;49.696;10.808;2023-05-29T04:54:17;56.60;39.89;71.07;;
64079;Laerm;51042;49.696;10.808;2023-05-29T04:56:45;51.27;40.60;64.74;;
64079;Laerm;51042;49.696;10.808;2023-05-29T04:59:11;55.02;41.48;67.37;;
64079;Laerm;51042;49.696;10.808;2023-05-29T05:01:37;57.53;40.95;73.65;;
64079;Laerm;51042;49.696;10.808;2023-05-29T05:04:02;52.35;41.29;64.57;;
64079;Laerm;51042;49.696;10.808;2023-05-29T05:06:28;53.36;41.86;66.27;;
64079;Laerm;51042;49.696;10.808;2023-05-29T05:08:54;53.44;41.15;65.73;;
64079;Laerm;51042;49.696;10.808;2023-05-29T05:11:21;52.57;40.96;69.12;;
64079;Laerm;51042;49.696;10.808;2023-05-29T05:13:47;53.50;40.98;67.89;;
64079;Laerm;51042;49.696;10.808;2023-05-29T05:16:12;55.03;41.34;67.38;;
64079;Laerm;51042;49.696;10.808;2023-05-29T05:18:38;51.44;40.74;65.79;;
64079;Laerm;51042;49.696;10.808;2023-05-29T05:21:03;56.10;41.56;69.04;;
64079;Laerm;51042;49.696;10.808;2023-05-29T05:23:29;54.31;41.66;68.33;;
64079;Laerm;51042;49.696;10.808;2023-05-29T05:25:55;57.29;41.03;71.68;;
64079;Laerm;51042;49.696;10.808;2023-05-29T05:28:20;51.98;41.18;66.05;;
64079;Laerm;51042;49.696;10.808;2023-05-29T05:30:45;56.23;41.24;70.79;;
64079;Laerm;51042;49.696;10.808;2023-05-29T05:33:11;52.59;41.90;65.77;;
64079;Laerm;51042;49.696;10.808;2023-05-29T05:35:36;54.76;41.66;69.75;;
64079;Laerm;51042;49.696;10.808;2023-05-29T05:38:02;52.38;42.18;65.26;;
64079;Laerm;51042;49.696;10.808;2023-05-29T05:40:28;51.26;41.36;65.57;;
64079;Laerm;51042;49.696;10.808;2023-05-29T05:42:53;55.60;41.69;71.38;;
64079;Laerm;51042;49.696;10.808;2023-05-29T05:45:18;56.43;41.94;70.63;;
64079;Laerm;51042;49.696;10.808;2023-05-29T05:47:43;53.97;40.96;69.61;;
64079;Laerm;51042;49.696;10.808;2023-05-29T05:50:09;55.57;41.33;68.75;;
64079;Laerm;51042;49.696;10.808;2023-05-29T05:52:35;55.26;40.91;68.13;;
64079;Laerm;51042;49.696;10.808;2023-05-29T05:55:00;54.00;40.53;67.64;;
64079;Laerm;51042;49.696;10.808;2023-05-29T05:57:25;57.13;41.23;76.17;;
64079;Laerm;51042;49.696;10.808;2023-05-29T05:59:51;56.83;41.32;72.10;;
64079;Laerm;51042;49.696;10.808;2023-05-29T06:02:17;52.69;41.20;69.43;;
64079;Laerm;51042;49.696;10.808;2023-05-29T06:04:42;51.07;40.57;66.98;;
64079;Laerm;51042;49.696;10.808;2023-05-29T06:07:08;57.29;40.55;70.15;;
64079;Laerm;51042;49.696;10.808;2023-05-29T06:09:34;54.26;41.04;69.87;;
64079;Laerm;51042;49.696;10.808;2023-05-29T06:11:59;59.92;41.56;75.73;;
64079;Laerm;51042;49.696;10.808;2023-05-29T06:14:25;57.14;41.69;70.23;;
64079;Laerm;51042;49.696;10.808;2023-05-29T06:16:50;51.26;40.79;65.68;;
64079;Laerm;51042;49.696;10.808;2023-05-29T06:19:16;52.81;41.47;65.71;;
64079;Laerm;51042;49.696;10.808;2023-05-29T06:21:41;50.54;41.16;64.48;;
64079;Laerm;51042;49.696;10.808;2023-05-29T06:24:06;55.43;40.63;69.07;;
64079;Laerm;51042;49.696;10.808;2023-05-29T06:26:31;52.49;40.43;64.72;;
64079;Laerm;51042;49.696;10.808;2023-05-29T06:28:57;53.99;40.90;67.19;;
64079;Laerm;51042;49.696;10.808;2023-05-29T06:31:22;54.13;41.09;68.88;;
64079;Laerm;51042;49.696;10.808;2023-05-29T06:33:48;59.59;40.61;75.54;;
64079;Laerm;51042;49.696;10.808;2023-05-29T06:36:13;55.68;40.95;69.32;;
64079;Laerm;51042;49.696;10.808;2023-05-29T06:38:38;56.81;39.73;73.15;;
64079;Laerm;51042;49.696;10.808;2023-05-29T06:41:03;55.29;40.51;68.91;;
64079;Laerm;51042;49.696;10.808;2023-05-29T06:43:29;54.97;40.66;66.07;;
64079;Laerm;51042;49.696;10.808;2023-05-29T06:45:54;52.96;40.53;64.68;;
64079;Laerm;51042;49.696;10.808;2023-05-29T06:48:20;53.14;40.54;66.28;;
64079;Laerm;51042;49.696;10.808;2023-05-29T06:50:47;55.65;40.90;68.39;;
64079;Laerm;51042;49.696;10.808;2023-05-29T06:53:12;61.17;40.96;79.63;;
64079;Laerm;51042;49.696;10.808;2023-05-29T06:55:38;53.65;40.28;65.15;;
64079;Laerm;51042;49.696;10.808;2023-05-29T06:58:05;58.20;42.53;75.08;;
64079;Laerm;51042;49.696;10.808;2023-05-29T07:00:30;55.94;40.93;67.93;;
64079;Laerm;51042;49.696;10.808;2023-05-29T07:02:56;53.41;40.69;68.84;;
64079;Laerm;51042;49.696;10.808;2023-05-29T07:05:21;49.94;39.89;66.72;;
64079;Laerm;51042;49.696;10.808;2023-05-29T07:07:46;59.28;39.92;78.90;;
64079;Laerm;51042;49.696;10.808;2023-05-29T07:10:11;52.42;40.05;67.42;;
64079;Laerm;51042;49.696;10.808;2023-05-29T07:12:37;57.14;39.99;69.87;;
64079;Laerm;51042;49.696;10.808;2023-05-29T07:15:02;56.50;40.08;75.06;;
64079;Laerm;51042;49.696;10.808;2023-05-29T07:17:28;57.99;40.77;71.46;;
64079;Laerm;51042;49.696;10.808;2023-05-29T07:19:53;59.67;41.09;74.41;;
64079;Laerm;51042;49.696;10.808;2023-05-29T07:22:19;55.41;40.21;70.97;;
64079;Laerm;51042;49.696;10.808;2023-05-29T07:24:45;58.65;40.39;73.19;;
64079;Laerm;51042;49.696;10.808;2023-05-29T07:27:10;57.57;40.93;72.30;;
64079;Laerm;51042;49.696;10.808;2023-05-29T07:29:35;56.70;40.23;71.14;;
64079;Laerm;51042;49.696;10.808;2023-05-29T07:32:02;58.22;42.09;71.36;;
64079;Laerm;51042;49.696;10.808;2023-05-29T07:34:27;55.32;41.39;69.27;;
64079;Laerm;51042;49.696;10.808;2023-05-29T07:37:00;55.81;40.65;72.99;;
64079;Laerm;51042;49.696;10.808;2023-05-29T07:39:25;57.80;41.01;71.36;;
64079;Laerm;51042;49.696;10.808;2023-05-29T07:41:51;50.09;40.39;64.30;;
64079;Laerm;51042;49.696;10.808;2023-05-29T07:44:17;53.11;41.29;65.76;;
64079;Laerm;51042;49.696;10.808;2023-05-29T07:46:43;57.07;41.34;68.87;;
64079;Laerm;51042;49.696;10.808;2023-05-29T07:49:08;55.83;41.36;67.20;;
64079;Laerm;51042;49.696;10.808;2023-05-29T07:51:33;57.12;40.95;71.31;;
64079;Laerm;51042;49.696;10.808;2023-05-29T07:53:59;55.94;41.08;72.79;;
64079;Laerm;51042;49.696;10.808;2023-05-29T07:56:24;53.51;41.32;70.20;;
64079;Laerm;51042;49.696;10.808;2023-05-29T07:58:50;57.94;41.69;76.15;;
64079;Laerm;51042;49.696;10.808;2023-05-29T08:01:18;56.11;40.77;72.67;;
64079;Laerm;51042;49.696;10.808;2023-05-29T08:03:44;61.23;41.57;85.79;;
64079;Laerm;51042;49.696;10.808;2023-05-29T08:06:09;57.38;41.96;74.26;;
64079;Laerm;51042;49.696;10.808;2023-05-29T08:08:34;55.30;41.18;70.86;;
64079;Laerm;51042;49.696;10.808;2023-05-29T08:11:00;58.91;41.05;73.16;;
64079;Laerm;51042;49.696;10.808;2023-05-29T08:13:25;61.29;41.57;76.31;;
64079;Laerm;51042;49.696;10.808;2023-05-29T08:15:50;59.86;42.14;74.40;;
64079;Laerm;51042;49.696;10.808;2023-05-29T08:18:16;64.47;42.70;87.75;;
64079;Laerm;51042;49.696;10.808;2023-05-29T08:20:41;63.06;42.45;85.90;;
64079;Laerm;51042;49.696;10.808;2023-05-29T08:23:07;64.09;41.29;83.09;;
64079;Laerm;51042;49.696;10.808;2023-05-29T08:25:33;56.29;41.94;70.14;;
64079;Laerm;51042;49.696;10.808;2023-05-29T08:27:58;59.40;41.94;74.73;;
64079;Laerm;51042;49.696;10.808;2023-05-29T08:30:23;67.72;42.13;88.09;;
64079;Laerm;51042;49.696;10.808;2023-05-29T08:32:49;58.08;41.05;74.63;;
64079;Laerm;51042;49.696;10.808;2023-05-29T08:35:15;60.43;41.66;75.93;;
64079;Laerm;51042;49.696;10.808;2023-05-29T08:37:41;59.39;42.18;82.07;;
64079;Laerm;51042;49.696;10.808;2023-05-29T08:40:07;68.01;41.87;88.49;;
64079;Laerm;51042;49.696;10.808;2023-05-29T08:42:36;58.93;41.46;79.74;;
64079;Laerm;51042;49.696;10.808;2023-05-29T08:45:06;60.10;41.98;80.22;;
64079;Laerm;51042;49.696;10.808;2023-05-29T08:47:34;68.48;42.17;89.00;;
64079;Laerm;51042;49.696;10.808;2023-05-29T08:50:00;61.25;42.35;77.94;;
64079;Laerm;51042;49.696;10.808;2023-05-29T08:52:27;58.99;42.07;79.89;;
64079;Laerm;51042;49.696;10.808;2023-05-29T08:54:55;58.33;42.24;80.18;;
64079;Laerm;51042;49.696;10.808;2023-05-29T08:57:21;59.85;42.26;78.83;;
64079;Laerm;51042;49.696;10.808;2023-05-29T08:59:51;57.43;42.27;70.51;;
64079;Laerm;51042;49.696;10.808;2023-05-29T09:02:17;60.09;42.50;76.25;;
64079;Laerm;51042;49.696;10.808;2023-05-29T09:04:42;65.60;41.19;84.72;;
64079;Laerm;51042;49.696;10.808;2023-05-29T09:07:14;66.89;43.09;85.34;;
64079;Laerm;51042;49.696;10.808;2023-05-29T09:09:40;66.00;42.37;85.12;;
64079;Laerm;51042;49.696;10.808;2023-05-29T09:12:06;66.97;42.39;88.93;;
64079;Laerm;51042;49.696;10.808;2023-05-29T09:14:37;60.02;41.88;78.83;;
64079;Laerm;51042;49.696;10.808;2023-05-29T09:17:03;70.60;42.70;94.76;;
64079;Laerm;51042;49.696;10.808;2023-05-29T09:19:30;65.85;43.15;83.79;;
64079;Laerm;51042;49.696;10.808;2023-05-29T09:22:07;56.44;42.50;72.80;;
64079;Laerm;51042;49.696;10.808;2023-05-29T09:24:33;65.38;44.30;83.22;;
64079;Laerm;51042;49.696;10.808;2023-05-29T09:27:00;65.26;43.04;80.29;;
64079;Laerm;51042;49.696;10.808;2023-05-29T09:29:27;68.43;43.69;85.75;;
64079;Laerm;51042;49.696;10.808;2023-05-29T09:31:52;62.60;43.58;81.31;;
64079;Laerm;51042;49.696;10.808;2023-05-29T09:34:17;62.86;42.68;85.21;;
64079;Laerm;51042;49.696;10.808;2023-05-29T09:36:43;57.17;41.47;77.55;;
64079;Laerm;51042;49.696;10.808;2023-05-29T09:39:08;65.05;43.33;85.89;;
64079;Laerm;51042;49.696;10.808;2023-05-29T09:41:42;62.62;43.00;79.87;;
64079;Laerm;51042;49.696;10.808;2023-05-29T09:44:07;64.69;44.00;86.57;;
64079;Laerm;51042;49.696;10.808;2023-05-29T09:46:36;64.95;42.32;83.34;;
64079;Laerm;51042;49.696;10.808;2023-05-29T09:49:01;58.30;41.34;72.75;;
64079;Laerm;51042;49.696;10.808;2023-05-29T09:51:28;61.07;42.36;76.82;;
64079;Laerm;51042;49.696;10.808;2023-05-29T09:53:55;62.54;41.59;83.24;;
64079;Laerm;51042;49.696;10.808;2023-05-29T09:56:26;62.38;42.09;82.63;;
64079;Laerm;51042;49.696;10.808;2023-05-29T09:58:53;66.48;43.79;85.20;;
64079;Laerm;51042;49.696;10.808;2023-05-29T10:01:21;62.00;42.17;78.24;;
64079;Laerm;51042;49.696;10.808;2023-05-29T10:03:47;54.70;41.70;70.83;;
64079;Laerm;51042;49.696;10.808;2023-05-29T10:06:16;64.44;42.54;86.70;;
64079;Laerm;51042;49.696;10.808;2023-05-29T10:08:46;72.19;43.10;89.97;;
64079;Laerm;51042;49.696;10.808;2023-05-29T10:11:17;67.56;42.71;85.56;;
64079;Laerm;51042;49.696;10.808;2023-05-29T10:13:51;62.95;42.07;81.08;;
64079;Laerm;51042;49.696;10.808;2023-05-29T10:16:20;57.91;41.86;69.71;;
64079;Laerm;51042;49.696;10.808;2023-05-29T10:18:50;61.00;41.88;83.27;;
64079;Laerm;51042;49.696;10.808;2023-05-29T10:21:20;68.07;42.91;86.80;;
64079;Laerm;51042;49.696;10.808;2023-05-29T10:23:48;60.70;42.70;77.73;;
64079;Laerm;51042;49.696;10.808;2023-05-29T10:26:35;58.47;41.00;79.61;;
64079;Laerm;51042;49.696;10.808;2023-05-29T10:32:36;59.41;42.02;77.18;;
64079;Laerm;51042;49.696;10.808;2023-05-29T10:37:56;63.93;42.61;86.97;;
64079;Laerm;51042;49.696;10.808;2023-05-29T10:40:24;69.65;42.98;86.50;;
64079;Laerm;51042;49.696;10.808;2023-05-29T10:42:51;68.99;42.69;84.24;;
64079;Laerm;51042;49.696;10.808;2023-05-29T10:50:38;65.88;44.52;84.35;;
64079;Laerm;51042;49.696;10.808;2023-05-29T10:53:22;64.56;41.74;85.98;;
64079;Laerm;51042;49.696;10.808;2023-05-29T10:55:48;62.95;42.18;80.97;;
64079;Laerm;51042;49.696;10.808;2023-05-29T10:58:18;60.11;41.48;81.00;;
64079;Laerm;51042;49.696;10.808;2023-05-29T11:00:45;59.85;42.12;79.16;;
64079;Laerm;51042;49.696;10.808;2023-05-29T11:03:21;64.31;42.84;86.51;;
64079;Laerm;51042;49.696;10.808;2023-05-29T11:05:59;61.78;41.92;80.73;;
64079;Laerm;51042;49.696;10.808;2023-05-29T11:08:42;55.99;41.62;69.76;;
64079;Laerm;51042;49.696;10.808;2023-05-29T11:11:11;57.24;41.84;77.01;;
64079;Laerm;51042;49.696;10.808;2023-05-29T11:13:37;63.17;42.45;85.91;;
64079;Laerm;51042;49.696;10.808;2023-05-29T11:18:31;57.82;42.18;73.86;;
64079;Laerm;51042;49.696;10.808;2023-05-29T11:21:05;61.18;43.50;81.14;;
64079;Laerm;51042;49.696;10.808;2023-05-29T11:23:39;64.53;42.20;84.92;;
64079;Laerm;51042;49.696;10.808;2023-05-29T11:26:06;63.18;42.93;83.20;;
64079;Laerm;51042;49.696;10.808;2023-05-29T11:28:32;65.73;42.45;83.53;;
64079;Laerm;51042;49.696;10.808;2023-05-29T11:30:59;66.79;43.37;88.79;;
64079;Laerm;51042;49.696;10.808;2023-05-29T11:33:27;61.07;41.87;81.07;;
64079;Laerm;51042;49.696;10.808;2023-05-29T11:35:59;70.45;41.96;87.71;;
64079;Laerm;51042;49.696;10.808;2023-05-29T11:38:26;60.58;42.07;79.84;;
64079;Laerm;51042;49.696;10.808;2023-05-29T11:40:53;56.56;41.61;77.28;;
64079;Laerm;51042;49.696;10.808;2023-05-29T11:43:19;59.91;42.28;78.49;;
64079;Laerm;51042;49.696;10.808;2023-05-29T11:45:44;63.02;42.63;83.30;;
64079;Laerm;51042;49.696;10.808;2023-05-29T11:48:10;62.74;42.97;82.49;;
64079;Laerm;51042;49.696;10.808;2023-05-29T11:50:36;64.95;42.27;85.13;;
64079;Laerm;51042;49.696;10.808;2023-05-29T11:53:01;64.90;41.32;85.73;;
64079;Laerm;51042;49.696;10.808;2023-05-29T11:55:27;62.75;41.87;81.54;;
64079;Laerm;51042;49.696;10.808;2023-05-29T11:57:58;60.13;42.53;80.40;;
64079;Laerm;51042;49.696;10.808;2023-05-29T12:00:24;56.43;41.27;70.39;;
64079;Laerm;51042;49.696;10.808;2023-05-29T12:02:51;59.03;40.68;75.02;;
64079;Laerm;51042;49.696;10.808;2023-05-29T12:05:17;61.03;42.00;81.20;;
64079;Laerm;51042;49.696;10.808;2023-05-29T12:07:55;60.23;41.42;81.68;;
64079;Laerm;51042;49.696;10.808;2023-05-29T12:10:26;60.39;41.44;81.68;;
64079;Laerm;51042;49.696;10.808;2023-05-29T12:15:18;67.19;42.80;86.40;;
64079;Laerm;51042;49.696;10.808;2023-05-29T12:17:45;62.74;41.47;79.27;;
64079;Laerm;51042;49.696;10.808;2023-05-29T12:20:12;70.44;43.45;86.09;;
64079;Laerm;51042;49.696;10.808;2023-05-29T12:22:39;69.88;41.88;89.57;;
64079;Laerm;51042;49.696;10.808;2023-05-29T12:25:13;65.28;41.09;84.78;;
64079;Laerm;51042;49.696;10.808;2023-05-29T12:27:41;60.37;41.34;77.98;;
64079;Laerm;51042;49.696;10.808;2023-05-29T12:32:44;53.60;40.59;67.55;;
64079;Laerm;51042;49.696;10.808;2023-05-29T12:37:35;63.27;42.15;81.83;;
64079;Laerm;51042;49.696;10.808;2023-05-29T12:40:21;64.94;41.53;88.62;;
64079;Laerm;51042;49.696;10.808;2023-05-29T12:42:48;63.71;42.30;85.05;;
64079;Laerm;51042;49.696;10.808;2023-05-29T12:45:14;61.05;41.46;82.16;;
64079;Laerm;51042;49.696;10.808;2023-05-29T12:47:52;62.85;41.35;82.70;;
64079;Laerm;51042;49.696;10.808;2023-05-29T12:53:04;65.62;42.11;85.19;;
64079;Laerm;51042;49.696;10.808;2023-05-29T12:55:39;59.74;42.11;74.67;;
64079;Laerm;51042;49.696;10.808;2023-05-29T12:58:06;60.99;43.08;77.31;;
64079;Laerm;51042;49.696;10.808;2023-05-29T13:00:33;62.27;41.30;80.32;;
64079;Laerm;51042;49.696;10.808;2023-05-29T13:02:59;60.05;41.46;74.95;;
64079;Laerm;51042;49.696;10.808;2023-05-29T13:05:24;62.16;42.79;79.77;;
64079;Laerm;51042;49.696;10.808;2023-05-29T13:07:50;58.04;42.20;78.14;;
64079;Laerm;51042;49.696;10.808;2023-05-29T13:10:16;61.87;42.29;82.56;;
64079;Laerm;51042;49.696;10.808;2023-05-29T13:12:42;58.58;41.92;81.82;;
64079;Laerm;51042;49.696;10.808;2023-05-29T13:15:10;58.57;41.92;73.19;;
64079;Laerm;51042;49.696;10.808;2023-05-29T13:17:35;57.70;42.46;72.05;;
64079;Laerm;51042;49.696;10.808;2023-05-29T13:20:00;58.07;42.43;72.81;;
64079;Laerm;51042;49.696;10.808;2023-05-29T13:22:26;63.62;41.69;79.63;;
64079;Laerm;51042;49.696;10.808;2023-05-29T13:24:59;61.88;42.03;79.01;;
64079;Laerm;51042;49.696;10.808;2023-05-29T13:27:25;57.45;41.97;75.92;;
64079;Laerm;51042;49.696;10.808;2023-05-29T13:29:51;61.29;41.60;80.86;;
64079;Laerm;51042;49.696;10.808;2023-05-29T13:32:16;58.00;41.79;69.79;;
64079;Laerm;51042;49.696;10.808;2023-05-29T13:34:42;58.85;41.74;72.93;;
64079;Laerm;51042;49.696;10.808;2023-05-29T13:37:07;56.33;41.88;73.26;;
64079;Laerm;51042;49.696;10.808;2023-05-29T13:39:32;59.79;42.98;78.40;;
64079;Laerm;51042;49.696;10.808;2023-05-29T13:41:58;60.79;42.72;81.89;;
64079;Laerm;51042;49.696;10.808;2023-05-29T13:44:23;66.17;42.45;85.53;;
64079;Laerm;51042;49.696;10.808;2023-05-29T13:46:48;65.09;42.85;83.34;;
64079;Laerm;51042;49.696;10.808;2023-05-29T13:49:13;55.23;41.87;76.69;;
64079;Laerm;51042;49.696;10.808;2023-05-29T13:51:39;52.55;42.08;66.15;;
64079;Laerm;51042;49.696;10.808;2023-05-29T13:54:04;55.50;41.32;68.38;;
64079;Laerm;51042;49.696;10.808;2023-05-29T13:56:30;58.95;42.15;76.40;;